sensor_id;sensor_type;location;lat;lon;timestamp;temperature;humidity
48206;DHT22;33995;48.202;16.260;2023-05-29T00:02:26;12.50;99.90
48206;DHT22;33995;48.202;16.260;2023-05-29T00:04:56;12.50;99.90
48206;DHT22;33995;48.202;16.260;2023-05-29T00:07:27;12.40;99.90
48206;DHT22;33995;48.202;16.260;2023-05-29T00:09:58;12.50;99.90
48206;DHT22;33995;48.202;16.260;2023-05-29T00:12:29;12.50;99.90
48206;DHT22;33995;48.202;16.260;2023-05-29T00:15:03;12.40;99.90
48206;DHT22;33995;48.202;16.260;2023-05-29T00:17:34;12.30;99.90
48206;DHT22;33995;48.202;16.260;2023-05-29T00:20:06;12.30;99.90
48206;DHT22;33995;48.202;16.260;2023-05-29T00:22:42;12.30;99.90
48206;DHT22;33995;48.202;16.260;2023-05-29T00:25:10;12.30;99.90
48206;DHT22;33995;48.202;16.260;2023-05-29T00:27:41;12.30;99.90
48206;DHT22;33995;48.202;16.260;2023-05-29T00:30:10;12.30;99.90
48206;DHT22;33995;48.202;16.260;2023-05-29T00:32:42;12.20;99.90
48206;DHT22;33995;48.202;16.260;2023-05-29T00:35:15;12.10;99.90
48206;DHT22;33995;48.202;16.260;2023-05-29T00:37:45;12.10;99.90
48206;DHT22;33995;48.202;16.260;2023-05-29T00:40:16;12.00;99.90
48206;DHT22;33995;48.202;16.260;2023-05-29T00:42:49;12.00;99.90
48206;DHT22;33995;48.202;16.260;2023-05-29T00:45:21;12.00;99.90
48206;DHT22;33995;48.202;16.260;2023-05-29T00:47:53;12.10;99.90
48206;DHT22;33995;48.202;16.260;2023-05-29T00:50:25;12.10;99.90
48206;DHT22;33995;48.202;16.260;2023-05-29T00:52:55;12.10;99.90
48206;DHT22;33995;48.202;16.260;2023-05-29T00:55:24;12.10;99.90
48206;DHT22;33995;48.202;16.260;2023-05-29T00:57:54;12.10;99.90
48206;DHT22;33995;48.202;16.260;2023-05-29T01:00:25;12.10;99.90
48206;DHT22;33995;48.202;16.260;2023-05-29T01:02:57;12.00;99.90
48206;DHT22;33995;48.202;16.260;2023-05-29T01:05:29;12.10;99.90
48206;DHT22;33995;48.202;16.260;2023-05-29T01:07:56;12.10;99.90
48206;DHT22;33995;48.202;16.260;2023-05-29T01:10:26;12.10;99.90
48206;DHT22;33995;48.202;16.260;2023-05-29T01:13:27;11.90;99.90
48206;DHT22;33995;48.202;16.260;2023-05-29T01:16:35;11.90;99.90
48206;DHT22;33995;48.202;16.260;2023-05-29T01:22:25;11.90;99.90
48206;DHT22;33995;48.202;16.260;2023-05-29T01:28:08;11.80;99.90
48206;DHT22;33995;48.202;16.260;2023-05-29T01:30:42;11.80;99.90
48206;DHT22;33995;48.202;16.260;2023-05-29T01:33:10;11.70;99.90
48206;DHT22;33995;48.202;16.260;2023-05-29T01:35:39;11.70;99.90
48206;DHT22;33995;48.202;16.260;2023-05-29T01:38:11;11.70;99.90
48206;DHT22;33995;48.202;16.260;2023-05-29T01:40:44;11.60;99.90
48206;DHT22;33995;48.202;16.260;2023-05-29T01:43:17;11.50;99.90
48206;DHT22;33995;48.202;16.260;2023-05-29T01:45:49;11.60;99.90
48206;DHT22;33995;48.202;16.260;2023-05-29T01:48:22;11.60;99.90
48206;DHT22;33995;48.202;16.260;2023-05-29T01:50:54;11.50;99.90
48206;DHT22;33995;48.202;16.260;2023-05-29T01:53:25;11.60;99.90
48206;DHT22;33995;48.202;16.260;2023-05-29T01:55:58;11.60;99.90
48206;DHT22;33995;48.202;16.260;2023-05-29T01:58:30;11.60;99.90
48206;DHT22;33995;48.202;16.260;2023-05-29T02:00:59;11.60;99.90
48206;DHT22;33995;48.202;16.260;2023-05-29T02:03:29;11.60;99.90
48206;DHT22;33995;48.202;16.260;2023-05-29T02:05:58;11.50;99.90
48206;DHT22;33995;48.202;16.260;2023-05-29T02:08:29;11.50;99.90
48206;DHT22;33995;48.202;16.260;2023-05-29T02:11:01;11.50;99.90
48206;DHT22;33995;48.202;16.260;2023-05-29T02:13:35;11.50;99.90
48206;DHT22;33995;48.202;16.260;2023-05-29T02:16:04;11.50;99.90
48206;DHT22;33995;48.202;16.260;2023-05-29T02:18:35;11.50;99.90
48206;DHT22;33995;48.202;16.260;2023-05-29T02:21:07;11.50;99.90
48206;DHT22;33995;48.202;16.260;2023-05-29T02:23:36;11.50;99.90
48206;DHT22;33995;48.202;16.260;2023-05-29T02:26:05;11.50;99.90
48206;DHT22;33995;48.202;16.260;2023-05-29T02:28:48;11.40;99.90
48206;DHT22;33995;48.202;16.260;2023-05-29T02:31:16;11.40;99.90
48206;DHT22;33995;48.202;16.260;2023-05-29T02:33:43;11.30;99.90
48206;DHT22;33995;48.202;16.260;2023-05-29T02:36:12;11.20;99.90
48206;DHT22;33995;48.202;16.260;2023-05-29T02:38:42;11.30;99.90
48206;DHT22;33995;48.202;16.260;2023-05-29T02:41:13;11.20;99.90
48206;DHT22;33995;48.202;16.260;2023-05-29T02:43:45;11.10;99.90
48206;DHT22;33995;48.202;16.260;2023-05-29T02:46:21;11.10;99.90
48206;DHT22;33995;48.202;16.260;2023-05-29T02:48:53;11.10;99.90
48206;DHT22;33995;48.202;16.260;2023-05-29T02:51:21;11.00;99.90
48206;DHT22;33995;48.202;16.260;2023-05-29T02:53:53;11.00;99.90
48206;DHT22;33995;48.202;16.260;2023-05-29T02:56:24;11.10;99.90
48206;DHT22;33995;48.202;16.260;2023-05-29T02:58:54;11.00;99.90
48206;DHT22;33995;48.202;16.260;2023-05-29T03:01:26;11.00;99.90
48206;DHT22;33995;48.202;16.260;2023-05-29T03:03:59;10.90;99.90
48206;DHT22;33995;48.202;16.260;2023-05-29T03:06:28;10.80;99.90
48206;DHT22;33995;48.202;16.260;2023-05-29T03:09:03;10.90;99.90
48206;DHT22;33995;48.202;16.260;2023-05-29T03:11:38;10.90;99.90
48206;DHT22;33995;48.202;16.260;2023-05-29T03:14:13;11.00;99.90
48206;DHT22;33995;48.202;16.260;2023-05-29T03:16:43;11.00;99.90
48206;DHT22;33995;48.202;16.260;2023-05-29T03:19:14;10.90;99.90
48206;DHT22;33995;48.202;16.260;2023-05-29T03:21:43;10.80;99.90
48206;DHT22;33995;48.202;16.260;2023-05-29T03:24:14;10.80;99.90
48206;DHT22;33995;48.202;16.260;2023-05-29T03:26:46;10.80;99.90
48206;DHT22;33995;48.202;16.260;2023-05-29T03:29:15;10.80;99.90
48206;DHT22;33995;48.202;16.260;2023-05-29T03:31:44;10.90;99.90
48206;DHT22;33995;48.202;16.260;2023-05-29T03:34:19;10.90;99.90
48206;DHT22;33995;48.202;16.260;2023-05-29T03:36:58;10.90;99.90
48206;DHT22;33995;48.202;16.260;2023-05-29T03:39:28;10.90;99.90
48206;DHT22;33995;48.202;16.260;2023-05-29T03:41:59;10.80;99.90
48206;DHT22;33995;48.202;16.260;2023-05-29T03:44:30;10.90;99.90
48206;DHT22;33995;48.202;16.260;2023-05-29T03:47:02;10.80;99.90
48206;DHT22;33995;48.202;16.260;2023-05-29T03:49:35;10.80;99.90
48206;DHT22;33995;48.202;16.260;2023-05-29T03:52:10;10.90;99.90
48206;DHT22;33995;48.202;16.260;2023-05-29T03:54:40;10.80;99.90
48206;DHT22;33995;48.202;16.260;2023-05-29T03:57:11;10.80;99.90
48206;DHT22;33995;48.202;16.260;2023-05-29T03:59:45;10.80;99.90
48206;DHT22;33995;48.202;16.260;2023-05-29T04:02:16;10.90;99.90
48206;DHT22;33995;48.202;16.260;2023-05-29T04:04:47;10.90;99.90
48206;DHT22;33995;48.202;16.260;2023-05-29T04:07:17;10.90;99.90
48206;DHT22;33995;48.202;16.260;2023-05-29T04:09:47;10.80;99.90
48206;DHT22;33995;48.202;16.260;2023-05-29T04:12:18;10.80;99.90
48206;DHT22;33995;48.202;16.260;2023-05-29T04:14:48;10.80;99.90
48206;DHT22;33995;48.202;16.260;2023-05-29T04:17:18;10.90;99.90
48206;DHT22;33995;48.202;16.260;2023-05-29T04:19:55;11.00;99.90
48206;DHT22;33995;48.202;16.260;2023-05-29T04:22:25;11.10;99.90
48206;DHT22;33995;48.202;16.260;2023-05-29T04:24:55;11.10;99.90
48206;DHT22;33995;48.202;16.260;2023-05-29T04:27:24;11.20;99.90
48206;DHT22;33995;48.202;16.260;2023-05-29T04:29:55;11.20;99.90
48206;DHT22;33995;48.202;16.260;2023-05-29T04:32:44;11.20;99.90
48206;DHT22;33995;48.202;16.260;2023-05-29T04:35:14;11.10;99.90
48206;DHT22;33995;48.202;16.260;2023-05-29T04:37:55;11.10;99.90
48206;DHT22;33995;48.202;16.260;2023-05-29T04:40:38;11.20;99.90
48206;DHT22;33995;48.202;16.260;2023-05-29T04:43:09;11.20;99.90
48206;DHT22;33995;48.202;16.260;2023-05-29T04:45:59;11.30;99.90
48206;DHT22;33995;48.202;16.260;2023-05-29T04:48:38;11.20;99.90
48206;DHT22;33995;48.202;16.260;2023-05-29T04:51:09;11.40;99.90
48206;DHT22;33995;48.202;16.260;2023-05-29T04:53:43;11.50;99.90
48206;DHT22;33995;48.202;16.260;2023-05-29T04:56:14;11.60;99.90
48206;DHT22;33995;48.202;16.260;2023-05-29T04:58:49;11.60;99.90
48206;DHT22;33995;48.202;16.260;2023-05-29T05:01:22;11.70;99.90
48206;DHT22;33995;48.202;16.260;2023-05-29T05:04:05;11.80;99.90
48206;DHT22;33995;48.202;16.260;2023-05-29T05:06:37;11.90;99.90
48206;DHT22;33995;48.202;16.260;2023-05-29T05:09:08;11.90;99.90
48206;DHT22;33995;48.202;16.260;2023-05-29T05:11:41;12.00;99.90
48206;DHT22;33995;48.202;16.260;2023-05-29T05:14:12;12.00;99.90
48206;DHT22;33995;48.202;16.260;2023-05-29T05:16:44;12.10;99.90
48206;DHT22;33995;48.202;16.260;2023-05-29T05:19:16;12.20;99.90
48206;DHT22;33995;48.202;16.260;2023-05-29T05:21:47;12.30;99.90
48206;DHT22;33995;48.202;16.260;2023-05-29T05:24:21;12.40;99.90
48206;DHT22;33995;48.202;16.260;2023-05-29T05:26:51;12.50;99.90
48206;DHT22;33995;48.202;16.260;2023-05-29T05:29:23;12.60;99.90
48206;DHT22;33995;48.202;16.260;2023-05-29T05:31:55;12.70;99.90
48206;DHT22;33995;48.202;16.260;2023-05-29T05:34:25;12.80;99.90
48206;DHT22;33995;48.202;16.260;2023-05-29T05:36:56;13.00;99.90
48206;DHT22;33995;48.202;16.260;2023-05-29T05:39:27;13.20;99.90
48206;DHT22;33995;48.202;16.260;2023-05-29T05:41:58;13.30;99.90
48206;DHT22;33995;48.202;16.260;2023-05-29T05:44:45;13.40;99.90
48206;DHT22;33995;48.202;16.260;2023-05-29T05:47:17;13.60;99.90
48206;DHT22;33995;48.202;16.260;2023-05-29T05:49:47;13.80;99.90
48206;DHT22;33995;48.202;16.260;2023-05-29T05:52:21;13.80;99.90
48206;DHT22;33995;48.202;16.260;2023-05-29T05:54:55;14.00;99.90
48206;DHT22;33995;48.202;16.260;2023-05-29T05:57:25;14.10;99.90
48206;DHT22;33995;48.202;16.260;2023-05-29T05:59:58;14.20;99.90
48206;DHT22;33995;48.202;16.260;2023-05-29T06:02:27;14.30;99.90
48206;DHT22;33995;48.202;16.260;2023-05-29T06:04:57;14.40;99.90
48206;DHT22;33995;48.202;16.260;2023-05-29T06:07:27;14.50;99.90
48206;DHT22;33995;48.202;16.260;2023-05-29T06:10:03;14.70;99.90
48206;DHT22;33995;48.202;16.260;2023-05-29T06:12:35;14.80;99.90
48206;DHT22;33995;48.202;16.260;2023-05-29T06:15:17;15.00;99.90
48206;DHT22;33995;48.202;16.260;2023-05-29T06:17:47;15.10;99.90
48206;DHT22;33995;48.202;16.260;2023-05-29T06:20:19;15.20;99.90
48206;DHT22;33995;48.202;16.260;2023-05-29T06:22:51;15.30;99.90
48206;DHT22;33995;48.202;16.260;2023-05-29T06:25:23;15.40;99.90
48206;DHT22;33995;48.202;16.260;2023-05-29T06:28:01;15.60;99.90
48206;DHT22;33995;48.202;16.260;2023-05-29T06:30:35;15.70;99.90
48206;DHT22;33995;48.202;16.260;2023-05-29T06:33:12;15.80;99.90
48206;DHT22;33995;48.202;16.260;2023-05-29T06:35:52;15.90;99.90
48206;DHT22;33995;48.202;16.260;2023-05-29T06:38:22;16.00;99.90
48206;DHT22;33995;48.202;16.260;2023-05-29T06:40:53;16.10;99.90
48206;DHT22;33995;48.202;16.260;2023-05-29T06:43:22;16.30;99.90
48206;DHT22;33995;48.202;16.260;2023-05-29T06:45:58;16.40;99.90
48206;DHT22;33995;48.202;16.260;2023-05-29T06:48:54;16.50;99.90
48206;DHT22;33995;48.202;16.260;2023-05-29T06:51:24;16.60;99.90
48206;DHT22;33995;48.202;16.260;2023-05-29T06:53:55;16.70;99.90
48206;DHT22;33995;48.202;16.260;2023-05-29T06:56:26;16.70;99.90
48206;DHT22;33995;48.202;16.260;2023-05-29T06:58:56;16.80;99.90
48206;DHT22;33995;48.202;16.260;2023-05-29T07:01:29;16.80;99.90
48206;DHT22;33995;48.202;16.260;2023-05-29T07:04:04;16.80;99.90
48206;DHT22;33995;48.202;16.260;2023-05-29T07:06:38;16.90;99.90
48206;DHT22;33995;48.202;16.260;2023-05-29T07:09:08;16.90;99.90
48206;DHT22;33995;48.202;16.260;2023-05-29T07:11:39;16.90;99.90
48206;DHT22;33995;48.202;16.260;2023-05-29T07:14:12;17.00;99.90
48206;DHT22;33995;48.202;16.260;2023-05-29T07:16:44;17.00;99.90
48206;DHT22;33995;48.202;16.260;2023-05-29T07:19:19;17.10;99.90
48206;DHT22;33995;48.202;16.260;2023-05-29T07:21:51;17.10;99.90
48206;DHT22;33995;48.202;16.260;2023-05-29T07:24:24;17.20;99.90
48206;DHT22;33995;48.202;16.260;2023-05-29T07:26:56;17.20;99.90
48206;DHT22;33995;48.202;16.260;2023-05-29T07:29:27;17.30;99.90
48206;DHT22;33995;48.202;16.260;2023-05-29T07:31:58;17.40;99.90
48206;DHT22;33995;48.202;16.260;2023-05-29T07:34:31;17.50;99.90
48206;DHT22;33995;48.202;16.260;2023-05-29T07:39:49;17.50;99.90
48206;DHT22;33995;48.202;16.260;2023-05-29T07:42:41;17.60;99.90
48206;DHT22;33995;48.202;16.260;2023-05-29T07:45:12;17.80;99.90
48206;DHT22;33995;48.202;16.260;2023-05-29T07:47:41;17.90;99.90
48206;DHT22;33995;48.202;16.260;2023-05-29T07:50:13;18.00;99.90
48206;DHT22;33995;48.202;16.260;2023-05-29T07:52:44;18.20;99.90
48206;DHT22;33995;48.202;16.260;2023-05-29T07:55:14;18.20;99.90
48206;DHT22;33995;48.202;16.260;2023-05-29T07:57:46;18.20;99.90
48206;DHT22;33995;48.202;16.260;2023-05-29T08:00:15;18.40;99.90
48206;DHT22;33995;48.202;16.260;2023-05-29T08:02:54;18.40;99.90
48206;DHT22;33995;48.202;16.260;2023-05-29T08:05:25;18.50;99.90
48206;DHT22;33995;48.202;16.260;2023-05-29T08:07:54;18.40;99.90
48206;DHT22;33995;48.202;16.260;2023-05-29T08:10:25;18.50;99.90
48206;DHT22;33995;48.202;16.260;2023-05-29T08:12:53;18.50;99.90
48206;DHT22;33995;48.202;16.260;2023-05-29T08:15:26;18.40;99.90
48206;DHT22;33995;48.202;16.260;2023-05-29T08:17:53;18.40;99.90
48206;DHT22;33995;48.202;16.260;2023-05-29T08:20:29;18.40;99.90
48206;DHT22;33995;48.202;16.260;2023-05-29T08:23:00;18.40;99.90
48206;DHT22;33995;48.202;16.260;2023-05-29T08:25:31;18.60;99.90
48206;DHT22;33995;48.202;16.260;2023-05-29T08:28:01;18.70;99.90
48206;DHT22;33995;48.202;16.260;2023-05-29T08:30:34;18.80;99.90
48206;DHT22;33995;48.202;16.260;2023-05-29T08:33:06;18.90;99.90
48206;DHT22;33995;48.202;16.260;2023-05-29T08:35:38;19.00;99.90
48206;DHT22;33995;48.202;16.260;2023-05-29T08:38:06;19.00;99.90
48206;DHT22;33995;48.202;16.260;2023-05-29T08:40:37;19.00;99.90
48206;DHT22;33995;48.202;16.260;2023-05-29T08:43:16;19.20;99.90
48206;DHT22;33995;48.202;16.260;2023-05-29T08:45:45;19.20;99.90
48206;DHT22;33995;48.202;16.260;2023-05-29T08:48:19;19.30;99.90
48206;DHT22;33995;48.202;16.260;2023-05-29T08:50:53;19.40;99.90
48206;DHT22;33995;48.202;16.260;2023-05-29T08:53:27;19.50;99.90
48206;DHT22;33995;48.202;16.260;2023-05-29T08:55:57;19.70;99.90
48206;DHT22;33995;48.202;16.260;2023-05-29T08:58:26;19.70;99.90
48206;DHT22;33995;48.202;16.260;2023-05-29T09:00:56;19.90;99.90
48206;DHT22;33995;48.202;16.260;2023-05-29T09:03:27;20.10;99.90
48206;DHT22;33995;48.202;16.260;2023-05-29T09:06:01;20.10;99.90
48206;DHT22;33995;48.202;16.260;2023-05-29T09:08:38;20.20;99.90
48206;DHT22;33995;48.202;16.260;2023-05-29T09:11:09;20.20;99.90
48206;DHT22;33995;48.202;16.260;2023-05-29T09:13:39;20.20;99.90
48206;DHT22;33995;48.202;16.260;2023-05-29T09:16:19;20.10;99.90
48206;DHT22;33995;48.202;16.260;2023-05-29T09:18:49;20.10;99.90
48206;DHT22;33995;48.202;16.260;2023-05-29T09:21:27;20.30;99.90
48206;DHT22;33995;48.202;16.260;2023-05-29T09:24:05;20.30;99.90
48206;DHT22;33995;48.202;16.260;2023-05-29T09:26:36;20.40;99.90
48206;DHT22;33995;48.202;16.260;2023-05-29T09:29:08;20.50;99.90
48206;DHT22;33995;48.202;16.260;2023-05-29T09:31:46;20.60;99.90
48206;DHT22;33995;48.202;16.260;2023-05-29T09:34:23;20.70;99.90
48206;DHT22;33995;48.202;16.260;2023-05-29T09:37:05;20.80;99.90
48206;DHT22;33995;48.202;16.260;2023-05-29T09:40:02;21.10;99.90
48206;DHT22;33995;48.202;16.260;2023-05-29T09:42:34;21.10;99.90
48206;DHT22;33995;48.202;16.260;2023-05-29T09:45:07;21.30;99.90
48206;DHT22;33995;48.202;16.260;2023-05-29T09:47:38;21.40;99.90
48206;DHT22;33995;48.202;16.260;2023-05-29T09:50:18;21.40;99.90
48206;DHT22;33995;48.202;16.260;2023-05-29T09:52:52;21.50;99.90
48206;DHT22;33995;48.202;16.260;2023-05-29T09:55:23;21.50;99.90
48206;DHT22;33995;48.202;16.260;2023-05-29T09:57:54;21.70;99.90
48206;DHT22;33995;48.202;16.260;2023-05-29T10:00:41;21.90;99.90
48206;DHT22;33995;48.202;16.260;2023-05-29T10:03:10;22.00;99.90
48206;DHT22;33995;48.202;16.260;2023-05-29T10:05:51;22.20;99.90
48206;DHT22;33995;48.202;16.260;2023-05-29T10:08:22;22.20;99.90
48206;DHT22;33995;48.202;16.260;2023-05-29T10:10:59;22.30;99.90
48206;DHT22;33995;48.202;16.260;2023-05-29T10:13:33;22.30;99.90
48206;DHT22;33995;48.202;16.260;2023-05-29T10:16:07;22.40;99.90
48206;DHT22;33995;48.202;16.260;2023-05-29T10:18:47;22.60;99.90
48206;DHT22;33995;48.202;16.260;2023-05-29T10:21:20;22.70;99.90
48206;DHT22;33995;48.202;16.260;2023-05-29T10:23:49;22.90;99.90
48206;DHT22;33995;48.202;16.260;2023-05-29T10:26:23;23.00;99.90
48206;DHT22;33995;48.202;16.260;2023-05-29T10:29:33;23.10;99.90
48206;DHT22;33995;48.202;16.260;2023-05-29T10:32:25;23.20;99.90
48206;DHT22;33995;48.202;16.260;2023-05-29T10:38:15;23.20;99.60
48206;DHT22;33995;48.202;16.260;2023-05-29T10:40:49;23.30;99.90
48206;DHT22;33995;48.202;16.260;2023-05-29T10:43:34;23.40;99.80
48206;DHT22;33995;48.202;16.260;2023-05-29T10:46:03;23.40;99.50
48206;DHT22;33995;48.202;16.260;2023-05-29T10:48:40;23.50;99.90
48206;DHT22;33995;48.202;16.260;2023-05-29T10:51:23;23.60;99.20
48206;DHT22;33995;48.202;16.260;2023-05-29T10:53:56;23.70;99.70
48206;DHT22;33995;48.202;16.260;2023-05-29T10:56:28;23.60;97.70
48206;DHT22;33995;48.202;16.260;2023-05-29T10:58:59;23.60;98.50
48206;DHT22;33995;48.202;16.260;2023-05-29T11:01:32;23.60;98.60
48206;DHT22;33995;48.202;16.260;2023-05-29T11:07:50;23.50;97.90
48206;DHT22;33995;48.202;16.260;2023-05-29T11:13:26;23.70;96.40
48206;DHT22;33995;48.202;16.260;2023-05-29T11:19:04;23.70;96.00
48206;DHT22;33995;48.202;16.260;2023-05-29T11:22:05;23.70;94.50
48206;DHT22;33995;48.202;16.260;2023-05-29T11:24:43;23.60;95.30
48206;DHT22;33995;48.202;16.260;2023-05-29T11:27:17;23.70;95.50
48206;DHT22;33995;48.202;16.260;2023-05-29T11:29:48;23.80;96.10
48206;DHT22;33995;48.202;16.260;2023-05-29T11:32:17;23.80;95.50
48206;DHT22;33995;48.202;16.260;2023-05-29T11:34:47;23.70;95.20
48206;DHT22;33995;48.202;16.260;2023-05-29T11:37:15;23.70;95.30
48206;DHT22;33995;48.202;16.260;2023-05-29T11:39:49;23.90;94.80
48206;DHT22;33995;48.202;16.260;2023-05-29T11:42:21;24.00;94.20
48206;DHT22;33995;48.202;16.260;2023-05-29T11:44:51;24.00;94.10
48206;DHT22;33995;48.202;16.260;2023-05-29T11:47:20;24.10;93.10
48206;DHT22;33995;48.202;16.260;2023-05-29T11:49:56;24.00;92.00
48206;DHT22;33995;48.202;16.260;2023-05-29T11:52:45;24.00;92.70
48206;DHT22;33995;48.202;16.260;2023-05-29T11:55:20;24.00;91.50
48206;DHT22;33995;48.202;16.260;2023-05-29T11:57:50;23.90;91.70
48206;DHT22;33995;48.202;16.260;2023-05-29T12:00:21;23.90;92.40
48206;DHT22;33995;48.202;16.260;2023-05-29T12:03:18;24.00;92.20
48206;DHT22;33995;48.202;16.260;2023-05-29T12:05:49;23.90;92.10
48206;DHT22;33995;48.202;16.260;2023-05-29T12:08:23;24.00;92.40
48206;DHT22;33995;48.202;16.260;2023-05-29T12:10:54;24.10;92.40
48206;DHT22;33995;48.202;16.260;2023-05-29T12:13:22;24.10;92.10
48206;DHT22;33995;48.202;16.260;2023-05-29T12:15:56;24.10;91.80
48206;DHT22;33995;48.202;16.260;2023-05-29T12:18:29;24.10;92.00
48206;DHT22;33995;48.202;16.260;2023-05-29T12:21:01;24.10;92.10
48206;DHT22;33995;48.202;16.260;2023-05-29T12:23:33;24.10;90.60
48206;DHT22;33995;48.202;16.260;2023-05-29T12:26:02;24.20;91.20
48206;DHT22;33995;48.202;16.260;2023-05-29T12:28:32;24.30;91.60
48206;DHT22;33995;48.202;16.260;2023-05-29T12:31:04;24.30;91.90
48206;DHT22;33995;48.202;16.260;2023-05-29T12:33:34;24.40;91.70
48206;DHT22;33995;48.202;16.260;2023-05-29T12:36:05;24.40;91.70
48206;DHT22;33995;48.202;16.260;2023-05-29T12:38:46;24.50;91.60
48206;DHT22;33995;48.202;16.260;2023-05-29T12:41:44;24.50;91.50
48206;DHT22;33995;48.202;16.260;2023-05-29T12:44:18;24.60;91.20
48206;DHT22;33995;48.202;16.260;2023-05-29T12:46:49;24.60;90.70
48206;DHT22;33995;48.202;16.260;2023-05-29T12:49:21;24.40;90.60
48206;DHT22;33995;48.202;16.260;2023-05-29T12:52:05;24.40;91.20
48206;DHT22;33995;48.202;16.260;2023-05-29T12:54:51;24.20;91.00
48206;DHT22;33995;48.202;16.260;2023-05-29T12:57:23;24.20;90.80
48206;DHT22;33995;48.202;16.260;2023-05-29T12:59:54;24.20;91.20
48206;DHT22;33995;48.202;16.260;2023-05-29T13:02:35;24.30;91.80
48206;DHT22;33995;48.202;16.260;2023-05-29T13:05:04;24.40;91.20
48206;DHT22;33995;48.202;16.260;2023-05-29T13:07:45;24.40;90.50
48206;DHT22;33995;48.202;16.260;2023-05-29T13:10:17;24.40;90.00
48206;DHT22;33995;48.202;16.260;2023-05-29T13:12:48;24.40;90.00
48206;DHT22;33995;48.202;16.260;2023-05-29T13:15:18;24.40;88.50
48206;DHT22;33995;48.202;16.260;2023-05-29T13:17:54;24.40;87.80
48206;DHT22;33995;48.202;16.260;2023-05-29T13:20:23;24.50;89.40
48206;DHT22;33995;48.202;16.260;2023-05-29T13:22:54;24.50;89.30
48206;DHT22;33995;48.202;16.260;2023-05-29T13:25:25;24.60;89.00
48206;DHT22;33995;48.202;16.260;2023-05-29T13:27:58;24.60;89.70
48206;DHT22;33995;48.202;16.260;2023-05-29T13:30:28;24.60;90.20
48206;DHT22;33995;48.202;16.260;2023-05-29T13:32:57;24.60;90.20
48206;DHT22;33995;48.202;16.260;2023-05-29T13:35:30;24.60;90.60
48206;DHT22;33995;48.202;16.260;2023-05-29T13:38:01;24.70;90.70
48206;DHT22;33995;48.202;16.260;2023-05-29T13:40:33;24.70;90.40
48206;DHT22;33995;48.202;16.260;2023-05-29T13:43:03;24.70;90.70
48206;DHT22;33995;48.202;16.260;2023-05-29T13:45:37;24.60;90.40
48206;DHT22;33995;48.202;16.260;2023-05-29T13:48:11;24.60;90.00
48206;DHT22;33995;48.202;16.260;2023-05-29T13:50:43;24.60;90.50
48206;DHT22;33995;48.202;16.260;2023-05-29T13:53:16;24.60;90.00
48206;DHT22;33995;48.202;16.260;2023-05-29T13:55:45;24.50;89.10
48206;DHT22;33995;48.202;16.260;2023-05-29T13:58:13;24.50;89.50
48206;DHT22;33995;48.202;16.260;2023-05-29T14:00:41;24.50;88.20
48206;DHT22;33995;48.202;16.260;2023-05-29T14:03:11;24.50;89.00
48206;DHT22;33995;48.202;16.260;2023-05-29T14:05:42;24.40;88.40
48206;DHT22;33995;48.202;16.260;2023-05-29T14:08:13;24.40;89.30
48206;DHT22;33995;48.202;16.260;2023-05-29T14:10:42;24.30;89.50
48206;DHT22;33995;48.202;16.260;2023-05-29T14:13:12;24.30;89.20
48206;DHT22;33995;48.202;16.260;2023-05-29T14:15:44;24.40;89.50
48206;DHT22;33995;48.202;16.260;2023-05-29T14:18:16;24.40;90.10
48206;DHT22;33995;48.202;16.260;2023-05-29T14:20:48;24.50;90.10
48206;DHT22;33995;48.202;16.260;2023-05-29T14:23:17;24.60;90.00
48206;DHT22;33995;48.202;16.260;2023-05-29T14:25:44;24.60;90.30
48206;DHT22;33995;48.202;16.260;2023-05-29T14:28:18;24.70;90.00
48206;DHT22;33995;48.202;16.260;2023-05-29T14:30:48;24.60;88.20
48206;DHT22;33995;48.202;16.260;2023-05-29T14:33:18;24.70;87.90
48206;DHT22;33995;48.202;16.260;2023-05-29T14:35:48;24.70;87.40
48206;DHT22;33995;48.202;16.260;2023-05-29T14:38:17;24.70;87.20
48206;DHT22;33995;48.202;16.260;2023-05-29T14:40:45;24.70;87.00
48206;DHT22;33995;48.202;16.260;2023-05-29T14:43:37;24.70;87.30
48206;DHT22;33995;48.202;16.260;2023-05-29T14:46:07;24.70;87.30
48206;DHT22;33995;48.202;16.260;2023-05-29T14:48:38;24.80;87.60
48206;DHT22;33995;48.202;16.260;2023-05-29T14:51:07;24.70;87.70
48206;DHT22;33995;48.202;16.260;2023-05-29T14:53:37;24.60;88.10
48206;DHT22;33995;48.202;16.260;2023-05-29T14:56:07;24.60;87.80
48206;DHT22;33995;48.202;16.260;2023-05-29T14:58:34;24.50;88.10
48206;DHT22;33995;48.202;16.260;2023-05-29T15:01:05;24.40;88.40
48206;DHT22;33995;48.202;16.260;2023-05-29T15:03:35;24.40;87.90
48206;DHT22;33995;48.202;16.260;2023-05-29T15:06:06;24.40;87.80
48206;DHT22;33995;48.202;16.260;2023-05-29T15:08:42;24.30;88.20
48206;DHT22;33995;48.202;16.260;2023-05-29T15:11:13;24.30;89.40
48206;DHT22;33995;48.202;16.260;2023-05-29T15:13:48;24.20;87.50
48206;DHT22;33995;48.202;16.260;2023-05-29T15:16:18;24.10;86.30
48206;DHT22;33995;48.202;16.260;2023-05-29T15:18:50;24.10;87.50
48206;DHT22;33995;48.202;16.260;2023-05-29T15:21:21;24.00;88.30
48206;DHT22;33995;48.202;16.260;2023-05-29T15:23:53;24.00;89.40
48206;DHT22;33995;48.202;16.260;2023-05-29T15:26:25;24.00;89.20
48206;DHT22;33995;48.202;16.260;2023-05-29T15:28:57;23.90;90.20
48206;DHT22;33995;48.202;16.260;2023-05-29T15:31:32;23.90;89.60
48206;DHT22;33995;48.202;16.260;2023-05-29T15:33:59;23.90;90.20
48206;DHT22;33995;48.202;16.260;2023-05-29T15:36:26;23.90;90.50
48206;DHT22;33995;48.202;16.260;2023-05-29T15:38:57;23.90;90.60
48206;DHT22;33995;48.202;16.260;2023-05-29T15:41:24;23.90;90.10
48206;DHT22;33995;48.202;16.260;2023-05-29T15:43:58;23.80;90.30
48206;DHT22;33995;48.202;16.260;2023-05-29T15:46:29;23.80;90.60
48206;DHT22;33995;48.202;16.260;2023-05-29T15:48:58;23.90;90.50
48206;DHT22;33995;48.202;16.260;2023-05-29T15:51:29;23.80;90.60
48206;DHT22;33995;48.202;16.260;2023-05-29T15:54:01;23.80;90.90
48206;DHT22;33995;48.202;16.260;2023-05-29T15:56:34;23.80;91.20
48206;DHT22;33995;48.202;16.260;2023-05-29T15:59:05;23.70;91.10
48206;DHT22;33995;48.202;16.260;2023-05-29T16:01:36;23.60;90.70
48206;DHT22;33995;48.202;16.260;2023-05-29T16:04:06;23.60;91.00
48206;DHT22;33995;48.202;16.260;2023-05-29T16:06:37;23.50;91.30
48206;DHT22;33995;48.202;16.260;2023-05-29T16:09:09;23.40;91.00
48206;DHT22;33995;48.202;16.260;2023-05-29T16:11:40;23.40;91.10
48206;DHT22;33995;48.202;16.260;2023-05-29T16:14:09;23.40;91.50